sensor_id;sensor_type;location;lat;lon;timestamp;P1;durP1;ratioP1;P2;durP2;ratioP2
64235;SDS011;50564;47.402;9.740;2023-05-10T00:03:07;1.35;;;0.50;;
64235;SDS011;50564;47.402;9.740;2023-05-10T00:08:08;2.58;;;0.47;;
64235;SDS011;50564;47.402;9.740;2023-05-10T00:13:09;0.57;;;0.50;;
64235;SDS011;50564;47.402;9.740;2023-05-10T00:18:09;3.30;;;0.85;;
64235;SDS011;50564;47.402;9.740;2023-05-10T00:23:10;1.00;;;0.50;;
64235;SDS011;50564;47.402;9.740;2023-05-10T00:28:11;0.35;;;0.35;;
64235;SDS011;50564;47.402;9.740;2023-05-10T00:33:11;0.20;;;0.20;;
64235;SDS011;50564;47.402;9.740;2023-05-10T00:38:12;1.98;;;0.30;;
64235;SDS011;50564;47.402;9.740;2023-05-10T00:43:13;1.92;;;1.30;;
64235;SDS011;50564;47.402;9.740;2023-05-10T00:48:13;1.48;;;1.15;;
64235;SDS011;50564;47.402;9.740;2023-05-10T00:53:14;4.72;;;1.60;;
64235;SDS011;50564;47.402;9.740;2023-05-10T00:58:15;2.63;;;1.55;;
64235;SDS011;50564;47.402;9.740;2023-05-10T01:03:16;2.13;;;1.70;;
64235;SDS011;50564;47.402;9.740;2023-05-10T01:08:17;8.52;;;3.78;;
64235;SDS011;50564;47.402;9.740;2023-05-10T01:13:40;4.20;;;2.60;;
64235;SDS011;50564;47.402;9.740;2023-05-10T01:18:40;3.08;;;1.25;;
64235;SDS011;50564;47.402;9.740;2023-05-10T01:35:08;0.30;;;0.30;;
64235;SDS011;50564;47.402;9.740;2023-05-10T01:40:26;0.30;;;0.30;;
64235;SDS011;50564;47.402;9.740;2023-05-10T01:45:38;0.47;;;0.20;;
64235;SDS011;50564;47.402;9.740;2023-05-10T01:50:45;1.02;;;0.40;;
64235;SDS011;50564;47.402;9.740;2023-05-10T01:55:49;0.25;;;0.25;;
64235;SDS011;50564;47.402;9.740;2023-05-10T02:00:52;2.67;;;0.40;;
64235;SDS011;50564;47.402;9.740;2023-05-10T02:05:54;2.03;;;0.50;;
64235;SDS011;50564;47.402;9.740;2023-05-10T02:10:56;0.50;;;0.50;;
64235;SDS011;50564;47.402;9.740;2023-05-10T02:15:57;0.43;;;0.40;;
64235;SDS011;50564;47.402;9.740;2023-05-10T02:20:58;0.70;;;0.50;;
64235;SDS011;50564;47.402;9.740;2023-05-10T02:25:59;0.93;;;0.38;;
64235;SDS011;50564;47.402;9.740;2023-05-10T02:31:01;1.05;;;0.40;;
64235;SDS011;50564;47.402;9.740;2023-05-10T02:36:02;0.75;;;0.50;;
64235;SDS011;50564;47.402;9.740;2023-05-10T02:41:03;0.75;;;0.45;;
64235;SDS011;50564;47.402;9.740;2023-05-10T02:46:05;0.75;;;0.45;;
64235;SDS011;50564;47.402;9.740;2023-05-10T02:51:07;0.40;;;0.38;;
64235;SDS011;50564;47.402;9.740;2023-05-10T02:56:11;1.70;;;1.50;;
64235;SDS011;50564;47.402;9.740;2023-05-10T03:01:17;3.10;;;2.10;;
64235;SDS011;50564;47.402;9.740;2023-05-10T03:06:18;2.13;;;1.80;;
64235;SDS011;50564;47.402;9.740;2023-05-10T03:16:47;1.55;;;0.52;;
64235;SDS011;50564;47.402;9.740;2023-05-10T03:21:54;2.28;;;0.68;;
64235;SDS011;50564;47.402;9.740;2023-05-10T03:27:02;2.58;;;0.70;;
64235;SDS011;50564;47.402;9.740;2023-05-10T03:32:05;2.85;;;0.90;;
64235;SDS011;50564;47.402;9.740;2023-05-10T03:37:06;2.83;;;1.33;;
64235;SDS011;50564;47.402;9.740;2023-05-10T03:42:06;1.58;;;0.90;;
64235;SDS011;50564;47.402;9.740;2023-05-10T03:47:07;0.90;;;0.70;;
64235;SDS011;50564;47.402;9.740;2023-05-10T03:52:08;1.05;;;0.80;;
64235;SDS011;50564;47.402;9.740;2023-05-10T03:57:09;3.65;;;1.52;;
64235;SDS011;50564;47.402;9.740;2023-05-10T04:02:10;2.53;;;0.85;;
64235;SDS011;50564;47.402;9.740;2023-05-10T04:07:10;1.13;;;0.75;;
64235;SDS011;50564;47.402;9.740;2023-05-10T04:12:11;1.45;;;0.90;;
64235;SDS011;50564;47.402;9.740;2023-05-10T04:17:12;0.93;;;0.80;;
64235;SDS011;50564;47.402;9.740;2023-05-10T04:22:12;3.85;;;0.80;;
64235;SDS011;50564;47.402;9.740;2023-05-10T04:27:13;1.85;;;0.90;;
64235;SDS011;50564;47.402;9.740;2023-05-10T04:32:13;2.20;;;0.85;;
64235;SDS011;50564;47.402;9.740;2023-05-10T04:37:16;5.68;;;2.35;;
64235;SDS011;50564;47.402;9.740;2023-05-10T04:42:17;6.35;;;4.55;;
64235;SDS011;50564;47.402;9.740;2023-05-10T04:47:17;2.78;;;2.13;;
64235;SDS011;50564;47.402;9.740;2023-05-10T04:52:18;2.33;;;1.10;;
64235;SDS011;50564;47.402;9.740;2023-05-10T04:57:19;1.15;;;0.93;;
64235;SDS011;50564;47.402;9.740;2023-05-10T05:02:19;5.05;;;3.42;;
64235;SDS011;50564;47.402;9.740;2023-05-10T05:07:20;6.45;;;3.05;;
64235;SDS011;50564;47.402;9.740;2023-05-10T05:12:20;3.83;;;2.75;;
64235;SDS011;50564;47.402;9.740;2023-05-10T05:17:21;4.35;;;1.83;;
64235;SDS011;50564;47.402;9.740;2023-05-10T05:22:22;3.67;;;1.83;;
64235;SDS011;50564;47.402;9.740;2023-05-10T05:27:27;4.20;;;2.17;;
64235;SDS011;50564;47.402;9.740;2023-05-10T05:32:28;3.05;;;1.92;;
64235;SDS011;50564;47.402;9.740;2023-05-10T05:37:29;2.85;;;1.33;;
64235;SDS011;50564;47.402;9.740;2023-05-10T05:42:30;3.05;;;1.38;;
64235;SDS011;50564;47.402;9.740;2023-05-10T05:47:31;3.80;;;1.65;;
64235;SDS011;50564;47.402;9.740;2023-05-10T05:52:31;1.88;;;1.15;;
64235;SDS011;50564;47.402;9.740;2023-05-10T05:57:32;2.90;;;1.30;;
64235;SDS011;50564;47.402;9.740;2023-05-10T06:02:33;3.05;;;1.50;;
64235;SDS011;50564;47.402;9.740;2023-05-10T06:07:33;4.53;;;3.15;;
64235;SDS011;50564;47.402;9.740;2023-05-10T06:12:34;5.07;;;3.60;;
64235;SDS011;50564;47.402;9.740;2023-05-10T06:17:35;5.70;;;1.80;;
64235;SDS011;50564;47.402;9.740;2023-05-10T06:22:35;2.22;;;1.38;;
64235;SDS011;50564;47.402;9.740;2023-05-10T06:27:36;2.17;;;0.90;;
64235;SDS011;50564;47.402;9.740;2023-05-10T06:32:37;5.05;;;1.17;;
64235;SDS011;50564;47.402;9.740;2023-05-10T06:37:37;2.88;;;1.90;;
64235;SDS011;50564;47.402;9.740;2023-05-10T06:42:38;3.25;;;1.58;;
64235;SDS011;50564;47.402;9.740;2023-05-10T06:47:39;2.55;;;1.40;;
64235;SDS011;50564;47.402;9.740;2023-05-10T06:52:39;1.77;;;1.15;;
64235;SDS011;50564;47.402;9.740;2023-05-10T06:57:40;2.88;;;1.60;;
64235;SDS011;50564;47.402;9.740;2023-05-10T07:02:40;2.35;;;2.00;;
64235;SDS011;50564;47.402;9.740;2023-05-10T07:07:41;3.70;;;2.13;;
64235;SDS011;50564;47.402;9.740;2023-05-10T07:12:42;2.88;;;1.73;;
64235;SDS011;50564;47.402;9.740;2023-05-10T07:17:43;3.42;;;2.10;;
64235;SDS011;50564;47.402;9.740;2023-05-10T07:22:43;2.30;;;1.10;;
64235;SDS011;50564;47.402;9.740;2023-05-10T07:27:44;5.80;;;2.40;;
64235;SDS011;50564;47.402;9.740;2023-05-10T07:32:47;6.82;;;1.75;;
64235;SDS011;50564;47.402;9.740;2023-05-10T07:37:47;2.53;;;1.60;;
64235;SDS011;50564;47.402;9.740;2023-05-10T07:42:48;1.05;;;0.75;;
64235;SDS011;50564;47.402;9.740;2023-05-10T07:47:49;0.70;;;0.52;;
64235;SDS011;50564;47.402;9.740;2023-05-10T07:52:50;1.83;;;0.90;;
64235;SDS011;50564;47.402;9.740;2023-05-10T07:57:50;1.17;;;0.70;;
64235;SDS011;50564;47.402;9.740;2023-05-10T08:02:53;1.00;;;0.75;;
64235;SDS011;50564;47.402;9.740;2023-05-10T08:07:54;2.20;;;0.98;;
64235;SDS011;50564;47.402;9.740;2023-05-10T08:12:54;2.80;;;1.40;;
64235;SDS011;50564;47.402;9.740;2023-05-10T08:17:55;2.13;;;1.55;;
64235;SDS011;50564;47.402;9.740;2023-05-10T08:22:56;3.03;;;1.70;;
64235;SDS011;50564;47.402;9.740;2023-05-10T08:27:56;2.05;;;1.10;;
64235;SDS011;50564;47.402;9.740;2023-05-10T08:32:57;0.98;;;0.65;;
64235;SDS011;50564;47.402;9.740;2023-05-10T08:37:57;0.98;;;0.75;;
64235;SDS011;50564;47.402;9.740;2023-05-10T08:42:59;0.60;;;0.47;;
64235;SDS011;50564;47.402;9.740;2023-05-10T08:48:06;3.05;;;1.30;;
64235;SDS011;50564;47.402;9.740;2023-05-10T08:53:12;5.53;;;2.95;;
64235;SDS011;50564;47.402;9.740;2023-05-10T08:58:13;3.20;;;1.80;;
64235;SDS011;50564;47.402;9.740;2023-05-10T09:03:14;4.28;;;1.55;;
64235;SDS011;50564;47.402;9.740;2023-05-10T09:08:15;6.07;;;1.70;;
64235;SDS011;50564;47.402;9.740;2023-05-10T09:13:16;0.95;;;0.82;;
64235;SDS011;50564;47.402;9.740;2023-05-10T09:18:17;2.35;;;1.20;;
64235;SDS011;50564;47.402;9.740;2023-05-10T09:23:18;2.10;;;1.27;;
64235;SDS011;50564;47.402;9.740;2023-05-10T09:28:18;3.65;;;1.42;;
64235;SDS011;50564;47.402;9.740;2023-05-10T09:33:19;4.05;;;2.20;;
64235;SDS011;50564;47.402;9.740;2023-05-10T09:38:20;5.10;;;3.13;;
64235;SDS011;50564;47.402;9.740;2023-05-10T09:43:20;3.67;;;2.17;;
64235;SDS011;50564;47.402;9.740;2023-05-10T09:48:23;2.00;;;0.95;;
64235;SDS011;50564;47.402;9.740;2023-05-10T09:53:24;1.50;;;1.10;;
64235;SDS011;50564;47.402;9.740;2023-05-10T09:58:25;3.17;;;1.98;;
64235;SDS011;50564;47.402;9.740;2023-05-10T10:03:25;3.75;;;1.88;;
64235;SDS011;50564;47.402;9.740;2023-05-10T10:08:26;4.13;;;2.28;;
64235;SDS011;50564;47.402;9.740;2023-05-10T10:13:27;1.58;;;0.80;;
64235;SDS011;50564;47.402;9.740;2023-05-10T10:18:27;0.93;;;0.70;;
64235;SDS011;50564;47.402;9.740;2023-05-10T10:23:28;2.00;;;1.42;;
64235;SDS011;50564;47.402;9.740;2023-05-10T10:43:46;0.73;;;0.70;;
64235;SDS011;50564;47.402;9.740;2023-05-10T10:48:48;0.50;;;0.50;;
64235;SDS011;50564;47.402;9.740;2023-05-10T10:53:51;0.70;;;0.70;;
64235;SDS011;50564;47.402;9.740;2023-05-10T10:58:52;2.30;;;1.23;;
64235;SDS011;50564;47.402;9.740;2023-05-10T11:09:10;1.33;;;0.83;;
64235;SDS011;50564;47.402;9.740;2023-05-10T11:14:22;1.90;;;1.05;;
64235;SDS011;50564;47.402;9.740;2023-05-10T11:19:22;1.35;;;0.52;;
64235;SDS011;50564;47.402;9.740;2023-05-10T11:24:27;3.85;;;1.00;;
64235;SDS011;50564;47.402;9.740;2023-05-10T11:29:28;3.47;;;1.08;;
64235;SDS011;50564;47.402;9.740;2023-05-10T11:34:29;5.30;;;1.55;;
64235;SDS011;50564;47.402;9.740;2023-05-10T11:39:33;3.50;;;1.52;;
64235;SDS011;50564;47.402;9.740;2023-05-10T11:44:34;0.75;;;0.65;;
64235;SDS011;50564;47.402;9.740;2023-05-10T11:49:34;1.67;;;0.80;;
64235;SDS011;50564;47.402;9.740;2023-05-10T11:54:35;2.35;;;1.88;;
64235;SDS011;50564;47.402;9.740;2023-05-10T11:59:36;1.45;;;1.10;;
64235;SDS011;50564;47.402;9.740;2023-05-10T12:04:37;0.88;;;0.80;;
64235;SDS011;50564;47.402;9.740;2023-05-10T12:09:42;5.30;;;2.28;;
64235;SDS011;50564;47.402;9.740;2023-05-10T12:14:50;2.50;;;1.25;;
64235;SDS011;50564;47.402;9.740;2023-05-10T12:19:51;1.65;;;0.70;;
64235;SDS011;50564;47.402;9.740;2023-05-10T12:24:51;2.70;;;0.90;;
64235;SDS011;50564;47.402;9.740;2023-05-10T12:29:52;2.15;;;0.73;;
64235;SDS011;50564;47.402;9.740;2023-05-10T12:34:52;1.02;;;0.60;;
64235;SDS011;50564;47.402;9.740;2023-05-10T12:39:53;2.00;;;0.88;;
64235;SDS011;50564;47.402;9.740;2023-05-10T12:44:56;2.75;;;0.88;;
64235;SDS011;50564;47.402;9.740;2023-05-10T12:49:57;2.78;;;0.93;;
64235;SDS011;50564;47.402;9.740;2023-05-10T12:54:58;2.97;;;0.70;;
64235;SDS011;50564;47.402;9.740;2023-05-10T13:00:00;1.55;;;0.88;;
64235;SDS011;50564;47.402;9.740;2023-05-10T13:05:00;1.63;;;1.02;;
64235;SDS011;50564;47.402;9.740;2023-05-10T13:10:01;1.02;;;0.90;;
64235;SDS011;50564;47.402;9.740;2023-05-10T13:15:02;3.03;;;1.77;;
64235;SDS011;50564;47.402;9.740;2023-05-10T13:20:03;5.45;;;1.75;;
64235;SDS011;50564;47.402;9.740;2023-05-10T13:25:04;3.75;;;2.08;;
64235;SDS011;50564;47.402;9.740;2023-05-10T13:30:05;3.45;;;1.90;;
64235;SDS011;50564;47.402;9.740;2023-05-10T13:35:07;3.45;;;2.10;;
64235;SDS011;50564;47.402;9.740;2023-05-10T13:40:08;1.40;;;1.25;;
64235;SDS011;50564;47.402;9.740;2023-05-10T13:45:09;1.60;;;0.77;;
64235;SDS011;50564;47.402;9.740;2023-05-10T13:50:12;3.30;;;0.80;;
64235;SDS011;50564;47.402;9.740;2023-05-10T13:55:12;2.65;;;0.80;;
64235;SDS011;50564;47.402;9.740;2023-05-10T14:00:13;1.90;;;1.13;;
64235;SDS011;50564;47.402;9.740;2023-05-10T14:05:15;2.75;;;1.23;;
64235;SDS011;50564;47.402;9.740;2023-05-10T14:10:16;1.75;;;0.90;;
64235;SDS011;50564;47.402;9.740;2023-05-10T14:15:16;2.42;;;1.30;;
64235;SDS011;50564;47.402;9.740;2023-05-10T14:20:17;3.60;;;1.52;;
64235;SDS011;50564;47.402;9.740;2023-05-10T14:25:18;1.70;;;1.00;;
64235;SDS011;50564;47.402;9.740;2023-05-10T14:30:18;3.63;;;2.17;;
64235;SDS011;50564;47.402;9.740;2023-05-10T14:35:19;2.00;;;1.13;;
64235;SDS011;50564;47.402;9.740;2023-05-10T14:40:20;2.47;;;1.00;;
64235;SDS011;50564;47.402;9.740;2023-05-10T14:45:21;3.00;;;1.88;;
64235;SDS011;50564;47.402;9.740;2023-05-10T14:50:22;3.85;;;2.33;;
64235;SDS011;50564;47.402;9.740;2023-05-10T14:55:23;2.80;;;1.10;;
64235;SDS011;50564;47.402;9.740;2023-05-10T15:00:24;1.27;;;0.93;;
64235;SDS011;50564;47.402;9.740;2023-05-10T15:05:24;1.83;;;1.00;;
64235;SDS011;50564;47.402;9.740;2023-05-10T15:10:25;1.08;;;0.65;;
64235;SDS011;50564;47.402;9.740;2023-05-10T15:15:26;1.60;;;0.80;;
64235;SDS011;50564;47.402;9.740;2023-05-10T15:20:26;2.45;;;1.38;;
64235;SDS011;50564;47.402;9.740;2023-05-10T15:25:27;1.52;;;0.88;;
64235;SDS011;50564;47.402;9.740;2023-05-10T15:30:28;2.92;;;0.90;;
64235;SDS011;50564;47.402;9.740;2023-05-10T15:35:29;1.42;;;1.08;;
64235;SDS011;50564;47.402;9.740;2023-05-10T15:40:30;1.92;;;0.82;;
64235;SDS011;50564;47.402;9.740;2023-05-10T15:45:30;2.20;;;0.93;;
64235;SDS011;50564;47.402;9.740;2023-05-10T15:50:31;0.98;;;0.70;;
64235;SDS011;50564;47.402;9.740;2023-05-10T15:55:32;2.65;;;0.90;;
64235;SDS011;50564;47.402;9.740;2023-05-10T16:00:34;1.67;;;0.77;;
64235;SDS011;50564;47.402;9.740;2023-05-10T16:05:34;3.65;;;0.90;;
64235;SDS011;50564;47.402;9.740;2023-05-10T16:10:35;4.05;;;1.42;;
64235;SDS011;50564;47.402;9.740;2023-05-10T16:15:37;4.10;;;1.08;;
64235;SDS011;50564;47.402;9.740;2023-05-10T16:20:37;1.23;;;1.00;;
64235;SDS011;50564;47.402;9.740;2023-05-10T16:25:38;3.42;;;2.13;;
64235;SDS011;50564;47.402;9.740;2023-05-10T16:30:38;5.32;;;2.70;;
64235;SDS011;50564;47.402;9.740;2023-05-10T16:35:39;2.97;;;1.40;;
64235;SDS011;50564;47.402;9.740;2023-05-10T16:40:41;1.58;;;1.33;;
64235;SDS011;50564;47.402;9.740;2023-05-10T16:45:41;1.63;;;1.08;;
64235;SDS011;50564;47.402;9.740;2023-05-10T16:50:42;2.22;;;1.20;;
64235;SDS011;50564;47.402;9.740;2023-05-10T16:55:43;6.03;;;2.30;;
64235;SDS011;50564;47.402;9.740;2023-05-10T17:00:44;4.72;;;2.30;;
64235;SDS011;50564;47.402;9.740;2023-05-10T17:05:45;3.10;;;2.00;;
64235;SDS011;50564;47.402;9.740;2023-05-10T17:10:46;3.22;;;1.95;;
64235;SDS011;50564;47.402;9.740;2023-05-10T17:15:47;3.58;;;2.10;;
64235;SDS011;50564;47.402;9.740;2023-05-10T17:20:47;8.15;;;3.42;;
64235;SDS011;50564;47.402;9.740;2023-05-10T17:25:49;8.95;;;3.90;;
64235;SDS011;50564;47.402;9.740;2023-05-10T17:30:56;3.92;;;2.10;;
64235;SDS011;50564;47.402;9.740;2023-05-10T17:35:57;3.50;;;1.80;;
64235;SDS011;50564;47.402;9.740;2023-05-10T17:40:58;4.47;;;1.90;;
64235;SDS011;50564;47.402;9.740;2023-05-10T17:45:58;2.72;;;1.95;;
64235;SDS011;50564;47.402;9.740;2023-05-10T17:50:59;3.72;;;1.45;;
64235;SDS011;50564;47.402;9.740;2023-05-10T17:56:00;1.90;;;1.60;;
64235;SDS011;50564;47.402;9.740;2023-05-10T18:01:00;4.43;;;1.98;;
64235;SDS011;50564;47.402;9.740;2023-05-10T18:06:01;4.15;;;2.17;;
64235;SDS011;50564;47.402;9.740;2023-05-10T18:11:03;3.45;;;1.50;;
64235;SDS011;50564;47.402;9.740;2023-05-10T18:16:04;3.42;;;1.98;;
64235;SDS011;50564;47.402;9.740;2023-05-10T18:21:07;3.55;;;1.75;;
64235;SDS011;50564;47.402;9.740;2023-05-10T18:26:08;4.63;;;2.30;;
64235;SDS011;50564;47.402;9.740;2023-05-10T18:31:08;5.72;;;4.00;;
64235;SDS011;50564;47.402;9.740;2023-05-10T18:36:09;4.82;;;3.00;;
64235;SDS011;50564;47.402;9.740;2023-05-10T18:41:10;4.80;;;2.58;;
64235;SDS011;50564;47.402;9.740;2023-05-10T18:46:12;4.35;;;1.80;;
64235;SDS011;50564;47.402;9.740;2023-05-10T18:51:14;4.22;;;2.20;;
64235;SDS011;50564;47.402;9.740;2023-05-10T18:56:14;5.50;;;2.70;;
64235;SDS011;50564;47.402;9.740;2023-05-10T19:01:15;3.40;;;1.60;;
64235;SDS011;50564;47.402;9.740;2023-05-10T19:06:15;3.10;;;2.00;;
64235;SDS011;50564;47.402;9.740;2023-05-10T19:11:16;6.07;;;2.30;;
64235;SDS011;50564;47.402;9.740;2023-05-10T19:16:17;3.65;;;2.05;;
64235;SDS011;50564;47.402;9.740;2023-05-10T19:21:18;5.63;;;2.30;;
64235;SDS011;50564;47.402;9.740;2023-05-10T19:26:19;4.40;;;1.80;;
64235;SDS011;50564;47.402;9.740;2023-05-10T19:31:20;3.80;;;2.22;;
64235;SDS011;50564;47.402;9.740;2023-05-10T19:36:21;7.45;;;3.53;;
64235;SDS011;50564;47.402;9.740;2023-05-10T19:41:22;3.20;;;1.98;;
64235;SDS011;50564;47.402;9.740;2023-05-10T19:46:22;3.05;;;2.17;;
64235;SDS011;50564;47.402;9.740;2023-05-10T19:51:23;5.45;;;2.15;;
64235;SDS011;50564;47.402;9.740;2023-05-10T19:56:23;4.60;;;2.05;;
64235;SDS011;50564;47.402;9.740;2023-05-10T20:01:26;5.75;;;2.80;;
64235;SDS011;50564;47.402;9.740;2023-05-10T20:06:26;4.22;;;2.65;;
64235;SDS011;50564;47.402;9.740;2023-05-10T20:11:27;3.17;;;2.10;;
64235;SDS011;50564;47.402;9.740;2023-05-10T20:16:27;4.10;;;1.80;;
64235;SDS011;50564;47.402;9.740;2023-05-10T20:21:28;4.07;;;1.92;;
64235;SDS011;50564;47.402;9.740;2023-05-10T20:26:28;1.70;;;1.60;;
64235;SDS011;50564;47.402;9.740;2023-05-10T20:31:29;4.82;;;2.42;;
64235;SDS011;50564;47.402;9.740;2023-05-10T20:36:30;4.45;;;2.30;;
64235;SDS011;50564;47.402;9.740;2023-05-10T20:41:30;3.45;;;1.83;;
64235;SDS011;50564;47.402;9.740;2023-05-10T20:46:31;3.53;;;1.90;;
64235;SDS011;50564;47.402;9.740;2023-05-10T20:51:32;3.65;;;2.10;;
64235;SDS011;50564;47.402;9.740;2023-05-10T20:56:33;4.68;;;2.55;;
64235;SDS011;50564;47.402;9.740;2023-05-10T21:01:34;4.63;;;2.20;;
64235;SDS011;50564;47.402;9.740;2023-05-10T21:06:34;2.63;;;1.98;;
64235;SDS011;50564;47.402;9.740;2023-05-10T21:11:35;4.28;;;2.60;;
64235;SDS011;50564;47.402;9.740;2023-05-10T21:16:40;4.28;;;2.95;;
64235;SDS011;50564;47.402;9.740;2023-05-10T21:21:41;5.78;;;2.83;;
64235;SDS011;50564;47.402;9.740;2023-05-10T21:26:41;4.18;;;2.58;;
64235;SDS011;50564;47.402;9.740;2023-05-10T21:31:42;2.95;;;2.25;;
64235;SDS011;50564;47.402;9.740;2023-05-10T21:36:43;4.50;;;2.60;;
64235;SDS011;50564;47.402;9.740;2023-05-10T21:41:43;3.47;;;2.13;;
64235;SDS011;50564;47.402;9.740;2023-05-10T21:46:44;2.42;;;1.90;;
64235;SDS011;50564;47.402;9.740;2023-05-10T21:51:44;3.85;;;2.47;;
64235;SDS011;50564;47.402;9.740;2023-05-10T21:56:45;4.22;;;2.30;;
64235;SDS011;50564;47.402;9.740;2023-05-10T22:01:46;4.15;;;3.30;;
64235;SDS011;50564;47.402;9.740;2023-05-10T22:06:46;4.20;;;3.55;;
64235;SDS011;50564;47.402;9.740;2023-05-10T22:11:48;6.32;;;3.75;;
64235;SDS011;50564;47.402;9.740;2023-05-10T22:16:48;5.38;;;4.20;;
64235;SDS011;50564;47.402;9.740;2023-05-10T22:21:49;6.07;;;4.53;;
64235;SDS011;50564;47.402;9.740;2023-05-10T22:26:52;5.40;;;3.22;;
64235;SDS011;50564;47.402;9.740;2023-05-10T22:31:53;4.78;;;3.22;;
64235;SDS011;50564;47.402;9.740;2023-05-10T22:36:53;4.28;;;3.00;;
64235;SDS011;50564;47.402;9.740;2023-05-10T22:41:54;5.70;;;3.83;;
64235;SDS011;50564;47.402;9.740;2023-05-10T22:46:55;5.47;;;3.47;;
64235;SDS011;50564;47.402;9.740;2023-05-10T22:51:55;5.07;;;3.50;;
64235;SDS011;50564;47.402;9.740;2023-05-10T22:56:56;3.60;;;2.75;;
64235;SDS011;50564;47.402;9.740;2023-05-10T23:01:56;4.03;;;3.10;;
64235;SDS011;50564;47.402;9.740;2023-05-10T23:06:57;4.85;;;3.58;;
64235;SDS011;50564;47.402;9.740;2023-05-10T23:11:58;4.60;;;2.38;;
64235;SDS011;50564;47.402;9.740;2023-05-10T23:16:58;2.13;;;1.80;;
64235;SDS011;50564;47.402;9.740;2023-05-10T23:21:59;2.58;;;1.65;;
64235;SDS011;50564;47.402;9.740;2023-05-10T23:26:59;2.45;;;1.50;;
64235;SDS011;50564;47.402;9.740;2023-05-10T23:32:00;2.95;;;1.58;;
64235;SDS011;50564;47.402;9.740;2023-05-10T23:37:01;1.33;;;1.23;;
64235;SDS011;50564;47.402;9.740;2023-05-10T23:42:01;1.48;;;1.30;;
64235;SDS011;50564;47.402;9.740;2023-05-10T23:47:02;3.25;;;1.70;;
64235;SDS011;50564;47.402;9.740;2023-05-10T23:52:03;2.85;;;1.60;;
64235;SDS011;50564;47.402;9.740;2023-05-10T23:57:03;3.35;;;1.55;;
